Time;durP1;ratioP1;P1;durP2;ratioP2;P2;SDS_P1;SDS_P2;PMS_P1;PMS_P2;Temp;Humidity;BMP_temperature;BMP_pressure;BME280_temperature;BME280_humidity;BME280_pressure;Samples;Min_cycle;Max_cycle;Signal;HPM_P1;HPM_P2
2021/01/14 00:00:28;;;;;;;22.48;10.60;;;;;;;15.22;38.40;155117.61;1693409;84;21358;-72
2021/01/14 00:03:02;;;;;;;20.88;10.30;;;;;;;15.27;38.35;155130.84;1691571;84;21219;-68
2021/01/14 00:05:35;;;;;;;22.87;10.43;;;;;;;15.24;38.43;155124.17;1689892;84;21283;-69
2021/01/14 00:08:08;;;;;;;24.45;11.53;;;;;;;15.36;38.30;155154.53;1687961;84;21361;-67
2021/01/14 00:10:41;;;;;;;21.20;10.58;;;;;;;15.37;38.24;155157.16;1693268;84;21354;-68
2021/01/14 00:13:14;;;;;;;24.32;10.80;;;;;;;15.22;38.44;155118.91;1669093;84;21232;-66
2021/01/14 00:15:47;;;;;;;24.30;11.65;;;;;;;15.35;38.47;155151.89;1691835;84;21210;-68
2021/01/14 00:18:20;;;;;;;23.83;10.63;;;;;;;15.40;38.45;155166.38;1681044;84;21704;-67
2021/01/14 00:20:52;;;;;;;21.75;11.30;;;;;;;15.41;38.27;155170.30;1682233;84;21247;-67
2021/01/14 00:23:25;;;;;;;27.15;13.15;;;;;;;15.32;38.40;155145.33;1689083;84;21860;-71
2021/01/14 00:25:58;;;;;;;25.48;11.90;;;;;;;15.30;38.45;155138.70;1682254;84;21761;-68
2021/01/14 00:28:30;;;;;;;26.60;12.20;;;;;;;15.25;38.48;155126.86;1666691;84;21385;-69
2021/01/14 00:31:06;;;;;;;22.93;11.73;;;;;;;15.13;38.59;155095.22;1685013;84;21304;-67
2021/01/14 00:33:39;;;;;;;26.40;12.98;;;;;;;15.09;38.63;155083.38;1662177;84;21817;-68
2021/01/14 00:36:12;;;;;;;26.90;12.68;;;;;;;15.23;38.53;155120.25;1684853;84;21191;-68
2021/01/14 00:38:45;;;;;;;26.40;12.58;;;;;;;15.36;38.47;155155.81;1689341;84;21702;-68
2021/01/14 00:41:17;;;;;;;25.23;13.25;;;;;;;15.29;38.55;155136.06;1686015;84;21249;-67
2021/01/14 00:43:50;;;;;;;30.90;14.28;;;;;;;15.24;38.59;155124.17;1688859;84;21720;-67
2021/01/14 00:46:23;;;;;;;26.15;11.88;;;;;;;15.16;38.71;155103.13;1664756;84;21370;-68
2021/01/14 00:48:57;;;;;;;25.62;12.93;;;;;;;15.21;38.70;155114.97;1676219;84;21183;-69
2021/01/14 00:51:36;;;;;;;26.60;11.48;;;;;;;15.15;38.77;155100.50;1679924;84;21285;-72
2021/01/14 00:54:09;;;;;;;23.70;11.60;;;;;;;15.37;38.56;155157.16;1654006;84;21218;-69
2021/01/14 00:56:41;;;;;;;28.65;13.03;;;;;;;15.40;38.51;155167.66;1649158;85;21436;-69
2021/01/14 00:59:14;;;;;;;29.57;13.20;;;;;;;15.45;38.45;155180.84;1670690;84;21267;-68
2021/01/14 01:01:47;;;;;;;26.68;11.68;;;;;;;15.43;38.53;155174.28;1617146;86;21354;-68
2021/01/14 01:04:19;;;;;;;25.72;12.95;;;;;;;15.42;38.53;155172.94;1667822;84;21214;-68
2021/01/14 01:06:53;;;;;;;22.65;11.88;;;;;;;15.24;38.69;155122.88;1668828;85;21179;-68
2021/01/14 01:09:25;;;;;;;22.58;11.03;;;;;;;15.10;38.95;155086.02;1679691;85;21386;-66
2021/01/14 01:11:58;;;;;;;21.48;11.57;;;;;;;15.16;38.78;155101.84;1678209;84;21167;-68
2021/01/14 01:14:31;;;;;;;22.67;11.43;;;;;;;15.16;38.79;155103.13;1678877;84;21916;-68
2021/01/14 01:17:04;;;;;;;22.22;11.65;;;;;;;15.15;38.83;155100.50;1676547;84;21327;-68
2021/01/14 01:19:36;;;;;;;19.42;10.18;;;;;;;15.16;38.82;155101.84;1689075;84;21373;-68
2021/01/14 01:22:09;;;;;;;21.93;10.03;;;;;;;15.17;38.75;155104.42;1676532;85;21187;-68
2021/01/14 01:24:42;;;;;;;20.80;10.45;;;;;;;15.11;38.63;155088.66;1680546;84;21423;-70
2021/01/14 01:27:14;;;;;;;20.08;10.32;;;;;;;15.14;38.60;155096.56;1677889;84;21382;-69
2021/01/14 01:29:48;;;;;;;18.35;9.70;;;;;;;15.13;38.48;155095.22;1666140;85;21202;-69
2021/01/14 01:32:20;;;;;;;17.27;9.80;;;;;;;15.07;38.56;155079.45;1675825;84;21251;-68
2021/01/14 01:34:53;;;;;;;22.45;10.70;;;;;;;15.07;38.48;155079.45;1673039;84;21405;-70
2021/01/14 01:37:26;;;;;;;18.98;9.80;;;;;;;15.08;38.51;155082.09;1659971;84;21867;-69
2021/01/14 01:39:58;;;;;;;18.02;9.23;;;;;;;15.07;38.50;155079.45;1676477;84;21196;-67
2021/01/14 01:42:32;;;;;;;20.02;9.28;;;;;;;15.23;38.41;155120.25;1683179;84;21378;-67
2021/01/14 01:45:05;;;;;;;17.65;8.23;;;;;;;15.20;38.41;155112.34;1691047;84;21849;-67
2021/01/14 01:47:39;;;;;;;20.30;9.75;;;;;;;15.19;38.32;155109.70;1666457;84;21231;-67
2021/01/14 01:50:11;;;;;;;21.45;9.68;;;;;;;15.09;38.44;155083.38;1691166;84;21389;-68
2021/01/14 01:52:44;;;;;;;20.80;9.25;;;;;;;15.33;38.31;155146.62;1683793;84;21873;-67
2021/01/14 01:55:16;;;;;;;21.15;9.78;;;;;;;15.27;38.26;155132.14;1688914;85;21385;-69
2021/01/14 01:57:49;;;;;;;17.87;9.50;;;;;;;15.31;38.43;155141.34;1666472;85;21185;-67
2021/01/14 02:00:22;;;;;;;20.57;9.15;;;;;;;15.34;38.26;155149.25;1653433;86;21327;-67
2021/01/14 02:02:55;;;;;;;16.95;8.93;;;;;;;15.33;38.26;155147.95;1666187;84;21376;-72
2021/01/14 02:05:27;;;;;;;16.73;7.78;;;;;;;15.37;38.28;155157.16;1667641;84;21191;-70
2021/01/14 02:08:33;;;;;;;23.40;10.03;;;;;;;15.60;38.04;155219.03;1672015;85;21341;-68
2021/01/14 02:11:15;;;;;;;18.45;8.93;;;;;;;15.72;37.87;155251.97;1669409;84;21409;-67
2021/01/14 02:14:08;;;;;;;18.95;8.85;;;;;;;15.71;37.85;155247.98;1688807;84;21425;-67
2021/01/14 02:16:43;;;;;;;20.62;10.28;;;;;;;15.77;37.76;155265.11;1665246;84;21295;-69
2021/01/14 02:19:23;;;;;;;19.02;9.20;;;;;;;15.53;37.99;155200.61;1648240;85;21381;-68
2021/01/14 02:22:00;;;;;;;16.52;8.65;;;;;;;15.77;37.77;155265.11;1667506;84;21326;-68
2021/01/14 02:24:41;;;;;;;17.20;8.93;;;;;;;15.75;37.74;155258.53;1640471;85;21860;-70
2021/01/14 02:27:13;;;;;;;18.35;10.80;;;;;;;15.77;37.76;155265.11;1674345;85;21172;-67
2021/01/14 02:29:46;;;;;;;20.08;9.58;;;;;;;16.00;37.78;155325.69;1629765;86;21265;-71
2021/01/14 02:32:18;;;;;;;18.48;8.85;;;;;;;16.16;37.46;155367.88;1663220;84;21199;-68
2021/01/14 02:34:51;;;;;;;16.97;8.93;;;;;;;16.21;37.52;155379.72;1667374;85;21325;-68
2021/01/14 02:37:23;;;;;;;20.37;10.48;;;;;;;16.23;37.51;155386.28;1685908;84;21239;-71
2021/01/14 02:39:56;;;;;;;21.40;10.28;;;;;;;16.30;37.41;155404.81;1688794;84;21401;-68
2021/01/14 02:42:29;;;;;;;18.17;10.03;;;;;;;16.13;37.35;155359.95;1673817;84;21235;-68
2021/01/14 02:45:01;;;;;;;18.55;8.93;;;;;;;15.93;37.55;155305.94;1646828;86;21247;-67
2021/01/14 02:47:34;;;;;;;27.13;11.33;;;;;;;15.93;37.68;155307.27;1682282;84;21361;-70
2021/01/14 02:50:07;;;;;;;20.55;9.85;;;;;;;15.90;37.78;155299.36;1689219;84;21424;-68
2021/01/14 02:52:40;;;;;;;18.90;9.75;;;;;;;16.04;37.58;155334.91;1687974;84;21758;-68
2021/01/14 02:55:12;;;;;;;20.75;10.03;;;;;;;16.10;37.56;155352.03;1682585;84;21337;-71
2021/01/14 02:57:45;;;;;;;20.85;11.08;;;;;;;16.12;37.59;155357.31;1690166;84;21381;-67
2021/01/14 03:00:19;;;;;;;22.77;10.43;;;;;;;16.08;37.79;155346.81;1694024;84;21730;-69
2021/01/14 03:02:51;;;;;;;22.55;11.33;;;;;;;16.26;37.59;155395.50;1681530;84;21183;-69
2021/01/14 03:05:24;;;;;;;21.90;10.40;;;;;;;16.15;37.62;155365.22;1694480;84;21317;-67
2021/01/14 03:07:56;;;;;;;23.62;11.22;;;;;;;16.25;37.60;155391.56;1688883;84;22414;-68
2021/01/14 03:10:28;;;;;;;23.12;11.63;;;;;;;16.21;37.78;155381.02;1684542;84;21270;-68
2021/01/14 03:13:01;;;;;;;24.77;11.65;;;;;;;16.22;37.86;155382.36;1693150;84;21369;-69
2021/01/14 03:15:33;;;;;;;21.23;11.10;;;;;;;16.34;37.78;155416.67;1688409;84;21219;-67
2021/01/14 03:18:07;;;;;;;26.00;12.20;;;;;;;16.43;37.71;155439.08;1682258;84;21183;-71
2021/01/14 03:20:39;;;;;;;24.05;11.85;;;;;;;16.53;37.68;155465.42;1676653;84;21414;-70
2021/01/14 03:23:12;;;;;;;25.43;10.43;;;;;;;20.41;34.25;156496.56;1688901;84;21243;-68
2021/01/14 03:25:45;;;;;;;23.60;11.18;;;;;;;22.36;31.86;157014.06;1683783;84;21813;-67
2021/01/14 03:28:17;;;;;;;24.55;12.55;;;;;;;21.33;33.24;156739.98;1693909;84;21458;-67
2021/01/14 03:30:53;;;;;;;23.15;11.50;;;;;;;22.99;31.41;157182.30;1662621;84;21310;-75
2021/01/14 03:33:24;;;;;;;24.52;12.05;;;;;;;22.03;32.23;156927.98;1680901;83;21368;-67
2021/01/14 03:35:57;;;;;;;24.90;11.15;;;;;;;18.39;34.37;155958.78;1687813;84;21738;-68
2021/01/14 03:38:29;;;;;;;25.12;11.25;;;;;;;17.38;36.18;155692.19;1686097;84;21198;-67
2021/01/14 03:41:03;;;;;;;24.77;12.00;;;;;;;17.22;36.47;155649.98;1677534;84;21227;-70
2021/01/14 03:43:36;;;;;;;21.93;11.50;;;;;;;17.54;36.14;155734.41;1696573;84;21384;-67
2021/01/14 03:46:15;;;;;;;22.15;11.55;;;;;;;17.60;36.13;155748.92;1696750;84;21203;-68
2021/01/14 03:48:48;;;;;;;24.18;11.43;;;;;;;17.61;36.02;155751.56;1696321;84;21214;-67
2021/01/14 03:51:22;;;;;;;23.32;12.13;;;;;;;17.27;36.07;155661.84;1677833;84;21222;-67
2021/01/14 03:53:55;;;;;;;25.92;11.28;;;;;;;17.36;36.13;155686.91;1697059;84;21258;-68
2021/01/14 03:56:27;;;;;;;23.10;12.75;;;;;;;17.27;36.06;155663.14;1672186;84;21847;-68
2021/01/14 03:59:00;;;;;;;26.65;12.20;;;;;;;17.22;36.18;155648.62;1648317;85;21379;-67
2021/01/14 04:01:36;;;;;;;24.23;10.72;;;;;;;17.17;36.10;155634.13;1677209;84;22004;-67
2021/01/14 04:04:09;;;;;;;23.70;11.40;;;;;;;17.04;36.28;155599.84;1678208;84;21342;-67
2021/01/14 04:06:41;;;;;;;24.75;12.78;;;;;;;16.58;36.69;155479.92;1687447;85;21369;-69
2021/01/14 04:09:14;;;;;;;26.48;13.10;;;;;;;16.76;36.61;155526.06;1663102;85;21741;-67
2021/01/14 04:11:47;;;;;;;26.52;11.83;;;;;;;16.68;36.70;155504.92;1688580;85;21337;-68
2021/01/14 04:14:20;;;;;;;26.57;12.65;;;;;;;16.50;36.94;155457.50;1654124;85;21705;-67
2021/01/14 04:16:53;;;;;;;24.90;12.25;;;;;;;16.82;36.78;155541.84;1652152;85;21356;-68
2021/01/14 04:19:25;;;;;;;27.20;12.33;;;;;;;16.54;37.04;155468.06;1662763;85;21186;-68
2021/01/14 04:21:58;;;;;;;30.50;12.82;;;;;;;16.64;37.14;155494.42;1652146;84;21198;-68
2021/01/14 04:24:36;;;;;;;26.25;12.23;;;;;;;17.14;36.73;155627.55;1690139;85;21239;-71
2021/01/14 04:27:09;;;;;;;31.42;13.83;;;;;;;16.87;36.84;155555.05;1681151;85;21392;-67
2021/01/14 04:29:42;;;;;;;29.57;13.88;;;;;;;16.95;36.78;155577.47;1669564;85;22038;-70
2021/01/14 04:32:14;;;;;;;26.20;12.37;;;;;;;17.60;36.28;155748.92;1668194;85;21222;-70
2021/01/14 04:34:47;;;;;;;24.57;12.07;;;;;;;17.15;36.61;155630.19;1653019;84;21326;-67
2021/01/14 04:37:20;;;;;;;25.50;12.18;;;;;;;17.20;36.69;155644.69;1686548;85;21226;-71
2021/01/14 04:39:53;;;;;;;28.62;14.28;;;;;;;17.83;36.21;155810.91;1678548;83;21412;-69
2021/01/14 04:42:25;;;;;;;28.87;12.98;;;;;;;17.97;35.82;155847.84;1658585;84;21211;-67
2021/01/14 04:44:58;;;;;;;28.38;13.25;;;;;;;17.55;35.88;155735.72;1650288;85;21242;-67
2021/01/14 04:47:30;;;;;;;28.90;12.55;;;;;;;18.02;35.82;155861.08;1664278;84;21199;-67
2021/01/14 04:50:04;;;;;;;28.67;12.70;;;;;;;18.42;35.46;155966.67;1680384;84;21243;-66
2021/01/14 04:52:37;;;;;;;29.23;13.40;;;;;;;19.03;34.96;156129.11;1659113;85;21215;-67
2021/01/14 04:55:18;;;;;;;29.07;13.48;;;;;;;18.92;34.69;156098.70;1634218;85;21197;-67
2021/01/14 04:57:46;;;;;;;27.75;12.88;;;;;;;17.99;35.55;155853.14;1650399;85;21314;-68
2021/01/14 05:00:20;;;;;;;29.50;11.90;;;;;;;17.71;36.20;155777.94;1670524;84;22854;-66
2021/01/14 05:03:02;;;;;;;34.60;14.33;;;;;;;17.79;36.15;155799.03;1663360;84;21198;-66
2021/01/14 05:05:33;;;;;;;28.83;12.90;;;;;;;18.91;35.18;156096.06;1663263;84;21334;-67
2021/01/14 05:08:09;;;;;;;33.45;13.83;;;;;;;19.38;34.90;156221.63;1683930;84;21325;-69
2021/01/14 05:10:42;;;;;;;32.50;14.75;;;;;;;18.91;34.88;156096.06;1676348;84;21855;-69
2021/01/14 05:13:15;;;;;;;28.25;13.83;;;;;;;18.99;34.54;156117.19;1664138;84;21286;-67
2021/01/14 05:15:47;;;;;;;26.97;12.55;;;;;;;20.06;33.79;156404.02;1682653;84;21331;-70
2021/01/14 05:18:23;;;;;;;30.20;14.00;;;;;;;19.50;34.18;156253.33;1663363;84;21238;-69
2021/01/14 05:21:00;;;;;;;31.73;14.15;;;;;;;18.90;34.81;156094.77;1688253;84;21307;-69
2021/01/14 05:23:32;;;;;;;28.47;14.78;;;;;;;19.26;34.42;156191.22;1652309;84;21809;-68
2021/01/14 05:26:05;;;;;;;39.63;17.37;;;;;;;18.83;34.89;156074.95;1674895;84;21263;-69
2021/01/14 05:28:39;;;;;;;44.03;19.37;;;;;;;19.43;34.35;156236.16;1686314;84;21271;-67
2021/01/14 05:31:19;;;;;;;41.10;17.98;;;;;;;19.36;34.30;156216.33;1687764;84;21239;-69
2021/01/14 05:34:00;;;;;;;38.58;18.52;;;;;;;19.14;34.56;156158.22;1686928;84;21293;-71
2021/01/14 05:36:57;;;;;;;40.88;18.52;;;;;;;19.27;34.51;156193.86;1687166;83;21263;-67
2021/01/14 05:39:30;;;;;;;37.80;17.92;;;;;;;19.86;34.11;156348.42;1687107;84;21350;-70
2021/01/14 05:42:11;;;;;;;35.98;16.15;;;;;;;19.58;34.24;156274.45;1687380;84;21500;-68
2021/01/14 05:44:47;;;;;;;33.18;15.75;;;;;;;19.80;34.16;156332.58;1687238;84;21381;-67
2021/01/14 05:47:25;;;;;;;31.85;15.50;;;;;;;19.97;33.91;156378.89;1687594;84;21377;-62
2021/01/14 05:50:07;;;;;;;36.60;15.28;;;;;;;19.98;33.86;156380.19;1688411;84;21219;-67
2021/01/14 05:52:40;;;;;;;35.30;15.88;;;;;;;19.17;34.31;156167.45;1636592;87;21369;-66
2021/01/14 05:55:13;;;;;;;32.03;15.03;;;;;;;21.82;32.14;156871.05;1639873;86;21397;-68
2021/01/14 05:58:04;;;;;;;39.40;17.50;;;;;;;24.62;30.36;157616.03;1687835;83;21353;-71
2021/01/14 06:00:38;;;;;;;33.00;14.58;;;;;;;20.63;32.75;156553.39;1696301;83;21219;-69
2021/01/14 06:03:28;;;;;;;30.88;15.98;;;;;;;20.98;32.90;156647.37;1696407;83;21317;-67
2021/01/14 06:06:00;;;;;;;31.93;15.63;;;;;;;19.46;33.75;156242.73;1690551;83;21389;-68
2021/01/14 06:08:33;;;;;;;36.88;15.20;;;;;;;19.17;34.49;156167.45;1651244;84;21261;-70
2021/01/14 06:11:05;;;;;;;31.07;15.10;;;;;;;19.05;34.56;156134.34;1696593;84;21361;-69
2021/01/14 06:13:41;;;;;;;30.70;14.68;;;;;;;18.15;35.05;155896.69;1639221;84;21805;-65
2021/01/14 06:16:14;;;;;;;33.02;15.43;;;;;;;18.30;35.12;155935.00;1683077;84;21242;-65
2021/01/14 06:19:10;;;;;;;35.75;15.08;;;;;;;18.14;35.25;155894.03;1693669;84;21335;-65
2021/01/14 06:21:49;;;;;;;33.18;15.72;;;;;;;18.35;35.29;155948.22;1678413;83;21215;-65
2021/01/14 06:24:30;;;;;;;32.35;15.70;;;;;;;18.54;35.11;155998.36;1670816;83;21329;-65
2021/01/14 06:27:10;;;;;;;33.67;16.32;;;;;;;18.42;35.28;155966.67;1681073;83;21191;-66
2021/01/14 06:29:43;;;;;;;33.10;16.05;;;;;;;18.42;35.35;155966.67;1670932;86;21253;-66
2021/01/14 06:32:18;;;;;;;37.53;16.25;;;;;;;18.45;35.48;155974.61;1687453;83;21333;-65
2021/01/14 06:34:52;;;;;;;33.10;14.73;;;;;;;18.61;35.45;156018.16;1698979;84;21231;-65
2021/01/14 06:37:27;;;;;;;31.20;14.63;;;;;;;18.71;35.37;156043.27;1697084;84;21241;-66
2021/01/14 06:40:00;;;;;;;41.25;17.48;;;;;;;18.86;35.24;156082.89;1680656;83;21387;-65
2021/01/14 06:42:37;;;;;;;33.02;16.20;;;;;;;18.73;35.42;156048.56;1688447;84;21369;-65
2021/01/14 06:45:14;;;;;;;36.58;16.07;;;;;;;19.01;35.22;156122.47;1698935;84;21342;-65
2021/01/14 06:47:50;;;;;;;37.50;17.00;;;;;;;18.99;35.11;156118.53;1683056;83;21183;-66
2021/01/14 06:50:27;;;;;;;35.13;15.98;;;;;;;18.83;35.32;156074.95;1699063;84;21657;-66
2021/01/14 06:53:14;;;;;;;33.40;16.17;;;;;;;18.92;35.10;156100.06;1669508;84;21338;-66
2021/01/14 06:55:46;;;;;;;35.10;16.30;;;;;;;19.04;35.08;156131.70;1676343;84;21226;-67
2021/01/14 06:58:19;;;;;;;33.23;15.25;;;;;;;19.08;34.91;156143.64;1683597;84;21359;-67
2021/01/14 07:00:52;;;;;;;32.33;14.75;;;;;;;19.03;34.91;156130.41;1664528;85;21721;-67
2021/01/14 07:03:24;;;;;;;33.35;15.15;;;;;;;18.93;35.07;156102.66;1688810;84;21450;-67
2021/01/14 07:06:05;;;;;;;29.95;13.58;;;;;;;19.03;34.94;156130.41;1668580;84;21227;-67
2021/01/14 07:09:04;;;;;;;34.55;15.68;;;;;;;19.23;34.71;156181.97;1688385;84;21192;-66
2021/01/14 07:11:43;;;;;;;28.67;14.65;;;;;;;19.48;34.41;156249.33;1668526;84;21230;-66
2021/01/14 07:14:18;;;;;;;29.67;14.85;;;;;;;19.27;34.57;156193.86;1622836;87;21340;-66
2021/01/14 07:16:56;;;;;;;28.95;13.68;;;;;;;19.35;34.46;156214.97;1618706;87;21364;-67
2021/01/14 07:19:29;;;;;;;27.20;13.13;;;;;;;19.28;34.58;156195.16;1659349;84;21223;-68
2021/01/14 07:22:03;;;;;;;24.82;12.20;;;;;;;19.37;34.42;156218.97;1691128;85;21342;-67
2021/01/14 07:24:35;;;;;;;28.30;12.95;;;;;;;19.32;34.36;156205.75;1662742;84;21206;-68
2021/01/14 07:27:10;;;;;;;26.82;13.62;;;;;;;19.23;34.44;156181.97;1685723;85;21730;-67
2021/01/14 07:29:43;;;;;;;28.87;13.95;;;;;;;19.14;34.50;156159.52;1690491;84;21322;-67
2021/01/14 07:32:16;;;;;;;30.37;15.05;;;;;;;19.14;34.66;156158.22;1672480;84;21384;-67
2021/01/14 07:34:48;;;;;;;31.48;14.23;;;;;;;19.21;34.68;156176.69;1646060;86;21277;-67
2021/01/14 07:37:21;;;;;;;31.50;13.62;;;;;;;19.22;34.56;156180.62;1650683;85;21206;-67
2021/01/14 07:39:56;;;;;;;31.12;13.68;;;;;;;19.20;34.61;156174.03;1620211;87;21320;-68
2021/01/14 07:42:30;;;;;;;29.70;14.18;;;;;;;19.33;34.60;156209.69;1674819;85;21199;-66
2021/01/14 07:45:07;;;;;;;28.60;13.32;;;;;;;19.45;34.57;156240.09;1663312;84;21369;-66
2021/01/14 07:47:40;;;;;;;32.40;14.98;;;;;;;19.24;35.31;156185.92;1620145;87;21242;-66
2021/01/14 07:50:29;;;;;;;27.95;14.40;;;;;;;19.10;35.30;156147.58;1620063;87;21337;-67
2021/01/14 07:53:02;;;;;;;27.80;13.80;;;;;;;18.85;35.49;156080.25;1691501;84;21402;-66
2021/01/14 07:55:36;;;;;;;29.00;13.75;;;;;;;18.36;36.20;155950.86;1645807;84;21349;-66
2021/01/14 07:58:22;;;;;;;29.32;13.83;;;;;;;19.07;35.82;156140.98;1689307;85;21986;-67
2021/01/14 08:01:09;;;;;;;29.92;13.28;;;;;;;18.75;36.83;156053.84;1674675;84;22281;-66
2021/01/14 08:03:42;;;;;;;29.42;14.25;;;;;;;19.23;35.70;156183.28;1653704;84;21748;-66
2021/01/14 08:06:45;;;;;;;31.93;15.20;;;;;;;18.45;37.31;155975.95;1664159;86;21345;-66
2021/01/14 08:09:10;;;;;;;28.63;13.90;;;;;;;18.88;39.41;156088.13;1662378;84;21341;-66
2021/01/14 08:11:58;;;;;;;28.80;14.13;;;;;;;19.25;36.82;156187.27;1661574;86;21396;-67
2021/01/14 08:14:41;;;;;;;28.90;14.30;;;;;;;19.40;36.12;156226.86;1666897;84;21341;-67
2021/01/14 08:17:27;;;;;;;27.55;13.72;;;;;;;19.15;36.44;156160.86;1675049;84;21812;-66
2021/01/14 08:20:00;;;;;;;31.40;14.83;;;;;;;19.21;36.97;156177.98;1681187;84;21321;-66
2021/01/14 08:22:43;;;;;;;32.55;14.85;;;;;;;19.27;37.08;156193.86;1701966;84;21409;-67
2021/01/14 08:25:17;;;;;;;34.43;15.53;;;;;;;19.20;37.39;156175.39;1673568;85;21249;-67
2021/01/14 08:27:51;;;;;;;33.95;14.83;;;;;;;18.98;37.01;156114.58;1695593;84;21191;-66
2021/01/14 08:30:24;;;;;;;37.08;17.05;;;;;;;19.22;36.69;156180.62;1641811;85;21185;-67
2021/01/14 08:33:06;;;;;;;42.25;18.70;;;;;;;18.91;38.01;156097.41;1618655;86;21712;-65
2021/01/14 08:35:41;;;;;;;39.38;18.85;;;;;;;18.72;37.45;156047.20;1667342;84;21246;-67
2021/01/14 08:38:15;;;;;;;36.93;18.25;;;;;;;18.81;37.37;156069.66;1635867;86;21214;-66
2021/01/14 08:40:48;;;;;;;32.98;16.37;;;;;;;18.78;37.15;156061.72;1667355;84;21305;-65
2021/01/14 08:43:21;;;;;;;36.28;16.57;;;;;;;19.13;36.81;156155.56;1665481;86;21191;-65
2021/01/14 08:45:56;;;;;;;34.38;16.62;;;;;;;19.23;36.66;156181.97;1634084;87;21221;-66
2021/01/14 08:48:30;;;;;;;30.52;14.40;;;;;;;19.09;36.72;156146.28;1647761;86;21891;-67
2021/01/14 08:51:04;;;;;;;40.85;18.32;;;;;;;19.17;36.59;156167.45;1685550;85;21193;-65
2021/01/14 08:53:38;;;;;;;40.10;18.27;;;;;;;18.91;38.18;156096.06;1684600;85;21367;-65
2021/01/14 08:56:18;;;;;;;40.65;17.40;;;;;;;18.92;37.17;156098.70;1692439;84;21244;-65
2021/01/14 08:58:52;;;;;;;39.95;17.40;;;;;;;19.14;37.07;156159.52;1659881;86;21191;-66
2021/01/14 09:01:26;;;;;;;41.40;18.32;;;;;;;19.55;36.73;156266.50;1682295;84;21737;-66
2021/01/14 09:03:59;;;;;;;45.05;18.92;;;;;;;19.91;36.24;156362.95;1691414;85;21353;-65
2021/01/14 09:06:37;;;;;;;41.55;19.15;;;;;;;19.75;36.31;156319.34;1691586;85;21392;-66
2021/01/14 09:09:12;;;;;;;43.13;18.92;;;;;;;19.31;36.71;156203.09;1669835;85;21255;-66
2021/01/14 09:11:46;;;;;;;48.75;20.08;;;;;;;19.36;37.04;156216.33;1653778;85;21852;-66
2021/01/14 09:14:19;;;;;;;45.05;19.57;;;;;;;19.23;37.17;156183.28;1652217;84;21227;-67
2021/01/14 09:16:52;;;;;;;40.52;19.50;;;;;;;19.14;37.22;156159.52;1619104;88;21238;-66
2021/01/14 09:19:27;;;;;;;42.95;18.80;;;;;;;18.92;37.89;156100.06;1653226;85;21321;-66
2021/01/14 09:21:59;;;;;;;46.92;20.60;;;;;;;18.91;37.55;156096.06;1654002;84;21376;-65
2021/01/14 09:24:33;;;;;;;51.45;20.70;;;;;;;18.87;37.96;156086.83;1618922;88;21298;-67
2021/01/14 09:27:06;;;;;;;47.80;20.62;;;;;;;19.06;37.71;156138.34;1654639;84;21829;-65
2021/01/14 09:29:39;;;;;;;47.05;20.60;;;;;;;19.14;37.28;156159.52;1667457;84;21231;-66
2021/01/14 09:32:16;;;;;;;50.67;20.52;;;;;;;18.75;37.91;156055.14;1665767;85;21714;-65
2021/01/14 09:34:48;;;;;;;45.98;20.02;;;;;;;18.50;38.44;155989.13;1663919;86;21215;-65
2021/01/14 09:37:21;;;;;;;46.63;20.08;;;;;;;19.01;39.03;156123.81;1686879;85;21247;-67
2021/01/14 09:39:54;;;;;;;46.55;19.73;;;;;;;19.36;38.06;156216.33;1677857;83;21261;-65
2021/01/14 09:42:26;;;;;;;52.03;21.57;;;;;;;19.39;37.90;156225.56;1618878;87;21222;-66
2021/01/14 09:44:59;;;;;;;49.80;21.20;;;;;;;19.51;37.50;156257.28;1653513;85;21432;-67
2021/01/14 09:47:31;;;;;;;52.85;20.37;;;;;;;19.15;38.50;156162.16;1665706;84;21227;-68
2021/01/14 09:50:04;;;;;;;55.67;22.10;;;;;;;18.99;38.08;156118.53;1691333;84;21195;-68
2021/01/14 09:52:37;;;;;;;47.15;19.87;;;;;;;19.04;39.80;156133.05;1691660;84;21900;-67
2021/01/14 09:55:14;;;;;;;48.28;19.98;;;;;;;18.94;39.08;156104.00;1691466;84;21254;-67
2021/01/14 09:57:54;;;;;;;44.27;20.23;;;;;;;18.89;38.31;156092.12;1689255;84;21362;-68
2021/01/14 10:00:28;;;;;;;37.65;18.25;;;;;;;19.23;37.65;156181.97;1651024;85;21417;-66
2021/01/14 10:03:05;;;;;;;46.53;19.05;;;;;;;19.45;37.35;156241.39;1652558;86;21290;-67
2021/01/14 10:05:41;;;;;;;49.35;18.60;;;;;;;19.49;37.12;156251.98;1653014;86;21377;-68
2021/01/14 10:08:22;;;;;;;40.92;18.75;;;;;;;19.38;36.98;156221.63;1618829;88;21226;-67
2021/01/14 10:10:54;;;;;;;53.90;24.67;;;;;;;19.65;36.76;156292.94;1649143;85;21195;-68
2021/01/14 10:13:26;;;;;;;51.60;23.18;;;;;;;19.64;36.63;156290.28;1647181;86;21249;-65
2021/01/14 10:16:12;;;;;;;46.77;22.98;;;;;;;19.59;36.63;156278.39;1646428;87;21237;-65
2021/01/14 10:18:44;;;;;;;44.45;19.02;;;;;;;19.63;36.43;156288.98;1651644;86;21376;-66
2021/01/14 10:21:27;;;;;;;44.93;19.05;;;;;;;19.59;36.31;156277.09;1652300;86;21348;-66
2021/01/14 10:24:00;;;;;;;45.60;18.45;;;;;;;19.63;37.02;156288.98;1652276;86;21793;-68
2021/01/14 10:26:35;;;;;;;51.10;20.10;;;;;;;19.75;38.16;156320.69;1618618;88;21790;-66
2021/01/14 10:29:07;;;;;;;43.68;19.45;;;;;;;19.80;36.88;156333.89;1650132;86;21203;-66
2021/01/14 10:35:25;;;;;;;50.75;18.92;;;;;;;19.98;36.49;156380.19;1655239;85;21314;-66
2021/01/14 10:38:15;;;;;;;45.23;19.35;;;;;;;20.09;36.08;156410.62;1618633;87;21306;-66
2021/01/14 10:40:52;;;;;;;47.70;17.80;;;;;;;20.02;36.12;156393.44;1653787;85;21364;-66
2021/01/14 10:43:34;;;;;;;50.17;19.98;;;;;;;20.00;36.13;156388.14;1646950;85;21748;-66
2021/01/14 10:46:08;;;;;;;47.93;19.42;;;;;;;19.93;36.15;156366.95;1649366;85;21226;-66
2021/01/14 10:48:42;;;;;;;45.00;18.92;;;;;;;20.03;36.05;156396.08;1651612;86;21369;-66
2021/01/14 10:51:17;;;;;;;42.13;20.80;;;;;;;19.79;36.20;156329.94;1652095;86;21197;-66
2021/01/14 10:53:54;;;;;;;49.83;20.80;;;;;;;19.78;36.27;156328.64;1629796;87;21918;-66
2021/01/14 10:56:27;;;;;;;49.83;20.30;;;;;;;19.27;36.70;156192.50;1650841;86;21729;-66
2021/01/14 10:59:05;;;;;;;49.67;19.75;;;;;;;19.81;36.44;156336.53;1650864;86;21362;-67
2021/01/14 11:01:36;;;;;;;52.45;21.48;;;;;;;19.85;36.55;156347.12;1654972;85;21900;-66
2021/01/14 11:04:10;;;;;;;46.25;21.02;;;;;;;20.23;35.84;156447.64;1665526;84;21246;-67
2021/01/14 11:06:44;;;;;;;48.52;19.75;;;;;;;20.14;35.98;156423.81;1674324;84;21334;-67
2021/01/14 11:09:18;;;;;;;53.90;22.58;;;;;;;20.04;36.13;156397.38;1659406;84;21253;-66
2021/01/14 11:11:51;;;;;;;55.65;21.77;;;;;;;20.06;36.14;156402.67;1659756;84;21227;-67
2021/01/14 11:14:24;;;;;;;55.03;23.83;;;;;;;20.04;36.59;156397.38;1631047;86;21836;-67
2021/01/14 11:16:57;;;;;;;48.13;20.15;;;;;;;19.83;36.37;156340.53;1671931;84;21199;-68
2021/01/14 11:19:31;;;;;;;52.83;20.62;;;;;;;19.71;36.49;156310.11;1691669;84;21374;-67
2021/01/14 11:22:05;;;;;;;54.25;23.50;;;;;;;19.81;36.48;156335.23;1658979;86;21340;-66
2021/01/14 11:24:38;;;;;;;51.98;23.52;;;;;;;19.81;36.38;156336.53;1663879;85;21278;-68
2021/01/14 11:27:11;;;;;;;45.73;20.32;;;;;;;19.90;36.28;156360.36;1675466;84;21203;-68
2021/01/14 11:29:44;;;;;;;44.93;20.23;;;;;;;19.85;36.28;156345.83;1698549;83;22390;-67
2021/01/14 11:32:17;;;;;;;55.12;23.35;;;;;;;19.88;36.35;156353.72;1701870;84;21240;-68
2021/01/14 11:34:53;;;;;;;46.75;21.52;;;;;;;19.88;36.42;156355.06;1701531;84;21322;-67
2021/01/14 11:37:25;;;;;;;48.15;21.42;;;;;;;19.81;36.50;156335.23;1665539;84;21170;-67
2021/01/14 11:39:58;;;;;;;59.20;25.70;;;;;;;19.78;36.76;156328.64;1676888;84;21296;-67
2021/01/14 11:42:31;;;;;;;72.20;34.60;;;;;;;19.77;37.03;156324.64;1658801;85;21756;-67
2021/01/14 11:45:05;;;;;;;72.32;32.90;;;;;;;19.73;38.34;156314.11;1675865;84;21199;-68
2021/01/14 11:47:37;;;;;;;62.40;29.75;;;;;;;19.66;38.19;156295.58;1673062;84;21238;-68